createdAt,value
2022-09-28T00:01:04.557Z,5.13
2022-09-28T00:03:30.958Z,5.25
2022-09-28T00:05:57.348Z,4.94
2022-09-28T00:08:23.731Z,5.30
2022-09-28T00:10:50.139Z,5.11
2022-09-28T00:13:16.535Z,4.78
2022-09-28T00:15:42.937Z,4.87
2022-09-28T00:18:09.353Z,4.91
2022-09-28T00:20:35.736Z,4.97
2022-09-28T00:23:02.204Z,4.83
2022-09-28T00:25:28.636Z,4.77
2022-09-28T00:27:55.042Z,4.64
2022-09-28T00:30:21.419Z,4.93
2022-09-28T00:32:47.852Z,4.68
2022-09-28T00:35:14.235Z,4.51
2022-09-28T00:37:40.711Z,4.63
2022-09-28T00:40:07.108Z,4.70
2022-09-28T00:42:33.487Z,4.82
2022-09-28T00:44:59.887Z,4.80
2022-09-28T00:47:26.277Z,4.97
2022-09-28T00:49:52.659Z,4.47
2022-09-28T00:52:19.158Z,4.73
2022-09-28T00:54:45.583Z,4.75
2022-09-28T00:57:12.052Z,4.51
2022-09-28T00:59:38.474Z,4.67
2022-09-28T01:02:04.950Z,4.22
2022-09-28T01:04:31.480Z,4.80
2022-09-28T01:06:57.875Z,4.54
2022-09-28T01:09:24.323Z,4.34
2022-09-28T01:11:50.708Z,4.51
2022-09-28T01:14:17.091Z,4.68
2022-09-28T01:16:43.543Z,4.24
2022-09-28T01:19:10.017Z,4.40
2022-09-28T01:21:36.440Z,4.48
2022-09-28T01:24:02.850Z,4.36
2022-09-28T01:26:29.328Z,4.55
2022-09-28T01:28:55.774Z,4.55
2022-09-28T01:31:22.228Z,4.40
2022-09-28T01:33:48.730Z,4.35
2022-09-28T01:36:15.150Z,4.14
2022-09-28T01:38:41.542Z,4.13
2022-09-28T01:41:07.929Z,4.26
2022-09-28T01:43:34.325Z,4.31
2022-09-28T01:46:00.746Z,4.32
2022-09-28T01:48:27.173Z,4.22
2022-09-28T01:50:53.569Z,4.20
2022-09-28T01:53:19.953Z,4.30
2022-09-28T01:55:46.338Z,4.08
2022-09-28T01:58:12.726Z,4.22
2022-09-28T02:00:39.193Z,4.03
2022-09-28T02:03:05.598Z,4.02
2022-09-28T02:05:32.052Z,3.90
2022-09-28T02:07:58.451Z,4.04
2022-09-28T02:10:24.837Z,3.85
2022-09-28T02:12:51.233Z,4.11
2022-09-28T02:15:17.607Z,3.92
2022-09-28T02:17:44.005Z,4.04
2022-09-28T02:20:10.385Z,3.94
2022-09-28T02:22:36.763Z,4.06
2022-09-28T02:25:03.158Z,3.73
2022-09-28T02:27:29.536Z,3.78
2022-09-28T02:29:55.941Z,3.92
2022-09-28T02:32:22.319Z,3.96
2022-09-28T02:34:48.713Z,3.87
2022-09-28T02:37:15.118Z,3.83
2022-09-28T02:39:41.569Z,3.81
2022-09-28T02:42:07.961Z,4.02
2022-09-28T02:44:34.340Z,3.53
2022-09-28T02:47:00.776Z,3.53
2022-09-28T02:49:27.154Z,3.66
2022-09-28T02:51:53.539Z,3.57
2022-09-28T02:54:19.931Z,3.54
2022-09-28T02:56:46.320Z,3.61
2022-09-28T02:59:12.913Z,3.83
2022-09-28T03:01:39.492Z,3.60
2022-09-28T03:04:05.889Z,3.61
2022-09-28T03:06:32.279Z,3.53
2022-09-28T03:08:58.664Z,3.39
2022-09-28T03:11:25.064Z,3.48
2022-09-28T03:13:51.444Z,3.15
2022-09-28T03:16:17.878Z,3.47
2022-09-28T03:18:44.318Z,3.30
2022-09-28T03:21:10.726Z,3.27
2022-09-28T03:23:37.128Z,3.11
2022-09-28T03:26:03.547Z,3.39
2022-09-28T03:28:29.958Z,3.02
2022-09-28T03:30:56.424Z,3.45
2022-09-28T03:33:22.874Z,3.16
2022-09-28T03:35:49.255Z,3.02
2022-09-28T03:38:15.648Z,3.20
2022-09-28T03:40:42.093Z,3.28
2022-09-28T03:43:08.510Z,3.22
2022-09-28T03:45:34.921Z,3.09
2022-09-28T03:48:01.356Z,3.01
2022-09-28T03:50:27.792Z,3.15
2022-09-28T03:52:54.165Z,3.10
2022-09-28T03:55:20.560Z,3.09
2022-09-28T03:57:46.951Z,2.95
2022-09-28T04:00:13.369Z,2.97
2022-09-28T04:02:39.835Z,2.85
2022-09-28T04:05:06.327Z,2.91
2022-09-28T04:07:32.701Z,2.90
2022-09-28T04:09:59.083Z,2.99
2022-09-28T04:12:25.488Z,2.82
2022-09-28T04:14:51.884Z,2.81
2022-09-28T04:17:18.283Z,3.03
2022-09-28T04:19:44.666Z,2.86
2022-09-28T04:22:11.072Z,2.85
2022-09-28T04:24:37.458Z,2.76
2022-09-28T04:27:03.884Z,2.69
2022-09-28T04:29:30.281Z,2.74
2022-09-28T04:31:56.708Z,2.58
2022-09-28T04:34:23.175Z,2.63
2022-09-28T04:36:49.561Z,2.65
2022-09-28T04:39:15.933Z,2.47
2022-09-28T04:41:42.310Z,2.37
2022-09-28T04:44:08.687Z,2.57
2022-09-28T04:46:35.149Z,2.50
2022-09-28T04:49:01.554Z,2.45
2022-09-28T04:51:27.922Z,2.77
2022-09-28T04:53:54.289Z,2.40
2022-09-28T04:56:20.697Z,2.38
2022-09-28T04:58:52.439Z,2.37
2022-09-28T05:01:19.293Z,2.43
2022-09-28T05:03:45.706Z,2.29
2022-09-28T05:06:12.178Z,2.19
2022-09-28T05:08:38.532Z,2.44
2022-09-28T05:11:04.894Z,2.35
2022-09-28T05:13:31.269Z,2.25
2022-09-28T05:16:01.763Z,2.31
2022-09-28T05:18:30.862Z,2.14
2022-09-28T05:20:57.229Z,2.15
2022-09-28T05:23:23.596Z,2.26
2022-09-28T05:25:49.959Z,2.20
2022-09-28T05:28:16.338Z,1.95
2022-09-28T05:30:42.711Z,1.99
2022-09-28T05:33:09.090Z,2.01
2022-09-28T05:35:35.443Z,1.98
2022-09-28T05:38:01.820Z,1.99
2022-09-28T05:40:28.251Z,1.87
2022-09-28T05:42:54.704Z,2.01
2022-09-28T05:45:21.087Z,1.77
2022-09-28T05:47:47.458Z,1.79
2022-09-28T05:50:13.824Z,1.79
2022-09-28T05:52:40.197Z,1.80
2022-09-28T05:55:06.558Z,1.69
2022-09-28T05:57:32.938Z,1.79
2022-09-28T05:59:59.302Z,1.66
2022-09-28T06:02:25.700Z,1.65
2022-09-28T06:04:52.200Z,1.60
2022-09-28T06:07:18.569Z,1.63
2022-09-28T06:09:44.961Z,1.54
2022-09-28T06:12:11.430Z,1.65
2022-09-28T06:14:37.798Z,1.70
2022-09-28T06:17:04.244Z,1.53
2022-09-28T06:19:30.697Z,1.41
2022-09-28T06:21:59.279Z,1.40
2022-09-28T06:24:25.848Z,1.45
2022-09-28T06:26:52.216Z,1.48
2022-09-28T06:29:19.667Z,1.47
2022-09-28T06:31:46.298Z,1.34
2022-09-28T06:34:12.671Z,1.35
2022-09-28T06:36:39.057Z,1.37
2022-09-28T06:39:05.435Z,1.31
2022-09-28T06:41:31.798Z,1.35
2022-09-28T06:43:58.216Z,1.38
2022-09-28T06:46:24.612Z,1.35
2022-09-28T06:48:51.023Z,1.37
2022-09-28T06:51:17.382Z,1.25
2022-09-28T06:53:43.744Z,1.29
2022-09-28T06:56:10.100Z,1.17
2022-09-28T06:58:36.462Z,1.31
2022-09-28T07:01:02.843Z,1.44
2022-09-28T07:03:29.234Z,1.30
2022-09-28T07:05:55.607Z,1.26
2022-09-28T07:08:21.975Z,1.32
2022-09-28T07:10:48.354Z,1.30
2022-09-28T07:13:41.688Z,1.29
2022-09-28T07:16:01.072Z,1.49
2022-09-28T07:18:27.483Z,1.57
2022-09-28T07:20:54.774Z,1.60
2022-09-28T07:23:21.189Z,1.74
2022-09-28T07:25:47.553Z,2.15
2022-09-28T07:28:13.926Z,2.12
2022-09-28T07:30:40.337Z,2.32
2022-09-28T07:33:06.727Z,2.49
2022-09-28T07:35:33.087Z,2.61
2022-09-28T07:37:59.447Z,2.70
2022-09-28T07:40:25.888Z,2.78
2022-09-28T07:42:52.317Z,2.93
2022-09-28T07:45:18.687Z,3.17
2022-09-28T07:47:45.042Z,3.78
2022-09-28T07:50:11.450Z,3.64
2022-09-28T07:52:37.853Z,3.66
2022-09-28T07:55:07.063Z,4.28
2022-09-28T07:57:33.869Z,4.33
2022-09-28T08:00:00.230Z,4.51
2022-09-28T08:02:26.646Z,4.80
2022-09-28T08:04:53.325Z,5.28
2022-09-28T08:07:23.727Z,5.37
2022-09-28T08:09:50.530Z,5.76
2022-09-28T08:12:16.895Z,5.92
2022-09-28T08:14:43.308Z,6.17
2022-09-28T08:17:09.764Z,6.39
2022-09-28T08:19:36.128Z,7.03
2022-09-28T08:22:02.506Z,6.91
2022-09-28T08:24:28.868Z,7.18
2022-09-28T08:26:55.250Z,7.46
2022-09-28T08:29:21.606Z,7.86
2022-09-28T08:31:47.994Z,8.48
2022-09-28T08:34:14.425Z,8.36
2022-09-28T08:36:40.844Z,8.48
2022-09-28T08:39:07.217Z,8.76
2022-09-28T08:41:33.572Z,8.43
2022-09-28T08:43:59.933Z,8.63
2022-09-28T08:46:27.224Z,8.81
2022-09-28T08:49:13.299Z,8.95
2022-09-28T08:51:40.104Z,8.90
2022-09-28T08:54:09.474Z,8.72
2022-09-28T08:56:38.268Z,9.08
2022-09-28T08:59:04.619Z,8.98
2022-09-28T09:01:31.080Z,9.12
2022-09-28T09:03:57.494Z,9.29
2022-09-28T09:06:23.861Z,8.87
2022-09-28T09:08:50.237Z,8.89
2022-09-28T09:11:16.592Z,9.22
2022-09-28T09:13:42.966Z,8.92
2022-09-28T09:16:09.324Z,8.91
2022-09-28T09:18:35.688Z,9.36
2022-09-28T09:21:02.051Z,8.91
2022-09-28T09:23:28.513Z,9.06
2022-09-28T09:25:54.873Z,9.01
2022-09-28T09:28:21.223Z,9.48
2022-09-28T09:30:47.672Z,9.47
2022-09-28T09:33:14.079Z,9.37
2022-09-28T09:35:40.433Z,9.89
2022-09-28T09:38:06.793Z,10.68
2022-09-28T09:40:33.184Z,10.54
2022-09-28T09:42:59.584Z,10.35
2022-09-28T09:45:25.949Z,10.90
2022-09-28T09:47:52.322Z,11.92
2022-09-28T09:50:18.727Z,11.70
2022-09-28T09:52:45.158Z,12.02
2022-09-28T09:55:11.533Z,12.24
2022-09-28T09:57:37.905Z,12.02
2022-09-28T10:00:04.267Z,12.57
2022-09-28T10:02:30.712Z,12.04
2022-09-28T10:04:57.130Z,12.62
2022-09-28T10:07:23.504Z,13.38
2022-09-28T10:09:49.876Z,13.61
2022-09-28T10:12:16.260Z,13.33
2022-09-28T10:14:42.650Z,13.81
2022-09-28T10:17:09.068Z,13.91
2022-09-28T10:19:35.459Z,14.02
2022-09-28T10:22:01.857Z,13.86
2022-09-28T10:24:28.219Z,14.16
2022-09-28T10:26:54.584Z,14.13
2022-09-28T10:29:20.965Z,14.37
2022-09-28T10:31:47.361Z,14.05
2022-09-28T10:34:13.750Z,13.96
2022-09-28T10:36:40.157Z,13.88
2022-09-28T10:39:06.543Z,13.90
2022-09-28T10:41:32.927Z,13.83
2022-09-28T10:43:59.301Z,14.33
2022-09-28T10:46:25.764Z,15.96
2022-09-28T10:48:52.185Z,16.63
2022-09-28T10:51:18.556Z,17.90
2022-09-28T10:53:44.928Z,20.60
2022-09-28T10:56:11.296Z,21.64
2022-09-28T10:58:37.665Z,21.32
2022-09-28T11:01:04.107Z,21.88
2022-09-28T11:03:30.523Z,23.57
2022-09-28T11:05:56.888Z,24.20
2022-09-28T11:08:23.257Z,24.91
2022-09-28T11:10:49.627Z,26.60
2022-09-28T11:13:16.000Z,28.57
2022-09-28T11:15:42.375Z,28.58
2022-09-28T11:18:08.758Z,29.08
2022-09-28T11:20:35.139Z,29.56
2022-09-28T11:23:01.530Z,30.84
2022-09-28T11:25:27.902Z,30.28
2022-09-28T11:27:54.275Z,30.22
2022-09-28T11:30:20.694Z,31.19
2022-09-28T11:32:47.081Z,31.62
2022-09-28T11:35:13.458Z,31.55
2022-09-28T11:37:39.837Z,32.43
2022-09-28T11:40:06.265Z,31.77
2022-09-28T11:42:32.651Z,32.48
2022-09-28T11:44:59.022Z,34.78
2022-09-28T11:47:25.409Z,34.81
2022-09-28T11:49:51.776Z,34.88
2022-09-28T11:52:18.155Z,36.02
2022-09-28T11:54:44.520Z,37.10
2022-09-28T11:57:10.904Z,38.34
2022-09-28T11:59:37.279Z,39.41
2022-09-28T12:02:03.707Z,41.14
2022-09-28T12:04:30.197Z,42.83
2022-09-28T12:06:56.560Z,43.30
2022-09-28T12:09:22.949Z,43.57
2022-09-28T12:11:49.317Z,44.74
2022-09-28T12:14:15.690Z,45.99
2022-09-28T12:19:28.420Z,47.56
2022-09-28T12:21:54.799Z,48.67
2022-09-28T12:24:21.178Z,48.61
2022-09-28T12:26:47.551Z,50.70
2022-09-28T12:29:13.954Z,49.91
2022-09-28T12:31:40.328Z,50.62
2022-09-28T12:34:06.696Z,50.08
2022-09-28T12:36:33.178Z,51.96
2022-09-28T12:39:21.756Z,50.79
2022-09-28T12:41:45.927Z,51.33
2022-09-28T12:44:12.301Z,52.20
2022-09-28T12:46:38.745Z,52.99
2022-09-28T12:49:51.475Z,51.24
2022-09-28T12:51:51.477Z,52.31
2022-09-28T12:54:17.946Z,52.68
2022-09-28T12:56:44.400Z,53.54
2022-09-28T12:59:10.794Z,52.29
2022-09-28T13:01:37.241Z,51.92
2022-09-28T13:04:03.633Z,52.66
2022-09-28T13:06:30.014Z,52.30
2022-09-28T13:08:56.383Z,52.44
2022-09-28T13:11:22.768Z,52.33
2022-09-28T13:13:49.137Z,51.44
2022-09-28T13:16:15.597Z,52.53
2022-09-28T13:18:42.013Z,51.78
2022-09-28T13:21:08.382Z,51.64
2022-09-28T13:23:34.762Z,51.64
2022-09-28T13:26:01.123Z,50.87
2022-09-28T13:28:27.556Z,51.48
2022-09-28T13:30:53.999Z,52.56
2022-09-28T13:33:20.416Z,51.75
2022-09-28T13:35:46.781Z,51.86
2022-09-28T13:38:13.144Z,51.40
2022-09-28T13:40:39.568Z,51.79
2022-09-28T13:43:06.024Z,52.41
2022-09-28T13:45:32.399Z,52.12
2022-09-28T13:47:58.773Z,51.56
2022-09-28T13:50:25.153Z,51.55
2022-09-28T13:52:51.672Z,52.01
2022-09-28T13:55:18.057Z,52.42
2022-09-28T13:57:44.451Z,52.07
2022-09-28T14:00:10.901Z,51.94
2022-09-28T14:02:37.373Z,52.17
2022-09-28T14:05:03.787Z,51.85
2022-09-28T14:07:30.186Z,52.53
2022-09-28T14:09:56.567Z,51.28
2022-09-28T14:12:22.949Z,51.11
2022-09-28T14:14:49.323Z,51.91
2022-09-28T14:17:15.714Z,52.66
2022-09-28T14:19:42.098Z,51.63
2022-09-28T14:22:08.470Z,50.79
2022-09-28T14:24:34.852Z,51.62
2022-09-28T14:27:01.230Z,50.11
2022-09-28T14:29:27.611Z,50.25
2022-09-28T14:31:53.996Z,49.86
2022-09-28T14:34:20.375Z,50.10
2022-09-28T14:36:46.756Z,50.12
2022-09-28T14:39:13.140Z,49.81
2022-09-28T14:41:39.508Z,49.87
2022-09-28T14:44:05.887Z,49.01
2022-09-28T14:46:32.318Z,49.40
2022-09-28T14:48:58.735Z,49.11
2022-09-28T14:51:25.130Z,48.66
2022-09-28T14:53:51.503Z,49.05
2022-09-28T14:56:17.869Z,49.34
2022-09-28T14:58:47.016Z,49.13
2022-09-28T15:01:13.376Z,48.88
2022-09-28T15:03:39.747Z,48.53
2022-09-28T15:06:06.121Z,48.08
2022-09-28T15:08:32.505Z,47.74
2022-09-28T15:10:58.888Z,47.19
2022-09-28T15:13:25.266Z,47.74
2022-09-28T15:15:51.673Z,47.57
2022-09-28T15:18:18.124Z,46.85
2022-09-28T15:20:44.514Z,46.54
2022-09-28T15:23:10.892Z,46.36
2022-09-28T15:25:37.266Z,45.27
2022-09-28T15:28:03.665Z,43.86
2022-09-28T15:30:30.032Z,43.82
2022-09-28T15:32:56.413Z,43.08
2022-09-28T15:35:22.786Z,43.27
2022-09-28T15:37:49.159Z,41.87
2022-09-28T15:40:15.568Z,42.56
2022-09-28T15:42:41.941Z,25.08
2022-09-28T15:45:08.301Z,12.26
2022-09-28T15:47:34.855Z,25.50
2022-09-28T15:50:01.242Z,27.44
2022-09-28T15:52:27.619Z,25.93
2022-09-28T15:54:53.986Z,26.64
2022-09-28T15:57:20.368Z,26.76
2022-09-28T15:59:46.727Z,27.74
2022-09-28T16:02:13.199Z,27.72
2022-09-28T16:04:39.660Z,27.71
2022-09-28T16:07:06.038Z,26.82
2022-09-28T16:09:36.056Z,26.12
2022-09-28T16:12:05.268Z,27.06
2022-09-28T16:14:31.663Z,26.74
2022-09-28T16:17:01.070Z,26.34
2022-09-28T16:19:27.457Z,25.91
2022-09-28T16:21:53.824Z,27.11
2022-09-28T16:24:20.188Z,27.24
2022-09-28T16:26:46.568Z,26.82
2022-09-28T16:29:12.936Z,26.25
2022-09-28T16:31:39.311Z,26.13
2022-09-28T16:34:08.499Z,25.47
2022-09-28T16:36:37.721Z,25.61
2022-09-28T16:39:04.097Z,25.52
2022-09-28T16:41:30.474Z,25.85
2022-09-28T16:43:56.936Z,26.10
2022-09-28T16:46:23.384Z,25.67
2022-09-28T16:48:49.815Z,25.62
2022-09-28T16:51:16.193Z,25.74
2022-09-28T16:53:42.569Z,25.02
2022-09-28T16:56:09.016Z,25.31
2022-09-28T16:58:35.390Z,25.03
2022-09-28T17:01:01.770Z,24.63
2022-09-28T17:03:28.213Z,24.12
2022-09-28T17:05:54.651Z,21.64
2022-09-28T17:08:21.058Z,20.64
2022-09-28T17:11:09.715Z,20.85
2022-09-28T17:13:33.823Z,21.23
2022-09-28T17:16:00.254Z,21.65
2022-09-28T17:18:26.639Z,22.75
2022-09-28T17:20:53.014Z,25.31
2022-09-28T17:26:05.691Z,27.84
2022-09-28T17:28:32.079Z,31.39
2022-09-28T17:30:58.537Z,36.62
2022-09-28T17:33:24.983Z,49.68
2022-09-28T17:35:51.399Z,41.14
2022-09-28T17:38:17.788Z,40.62
2022-09-28T17:40:44.179Z,40.26
2022-09-28T17:43:10.570Z,39.40
2022-09-28T17:45:36.939Z,37.59
2022-09-28T17:48:03.451Z,35.31
2022-09-28T17:50:29.845Z,34.97
2022-09-28T17:52:56.210Z,34.09
2022-09-28T17:55:22.576Z,33.84
2022-09-28T17:57:48.966Z,33.92
2022-09-28T18:00:15.339Z,32.89
2022-09-28T18:02:41.839Z,31.99
2022-09-28T18:05:08.244Z,31.67
2022-09-28T18:07:34.616Z,31.31
2022-09-28T18:10:01.002Z,30.31
2022-09-28T18:12:27.386Z,29.21
2022-09-28T18:14:53.796Z,29.10
2022-09-28T18:17:20.179Z,29.08
2022-09-28T18:19:46.564Z,29.28
2022-09-28T18:22:12.945Z,28.39
2022-09-28T18:24:39.313Z,29.03
2022-09-28T18:27:05.723Z,29.34
2022-09-28T18:29:33.445Z,27.38
2022-09-28T18:31:59.988Z,26.56
2022-09-28T18:34:26.363Z,26.61
2022-09-28T18:36:52.757Z,26.43
2022-09-28T18:39:19.211Z,26.68
2022-09-28T18:41:45.676Z,25.55
2022-09-28T18:44:12.145Z,25.32
2022-09-28T18:46:38.616Z,24.99
2022-09-28T18:49:05.032Z,24.77
2022-09-28T18:51:31.404Z,24.15
2022-09-28T18:53:57.780Z,23.56
2022-09-28T18:56:24.163Z,23.68
2022-09-28T18:58:50.639Z,23.28
2022-09-28T19:01:32.661Z,23.00
2022-09-28T19:03:59.261Z,22.77
2022-09-28T19:06:25.635Z,21.96
2022-09-28T19:08:52.175Z,22.41
2022-09-28T19:11:18.566Z,22.39
2022-09-28T19:13:44.946Z,21.68
2022-09-28T19:16:11.398Z,21.48
2022-09-28T19:18:37.821Z,22.06
2022-09-28T19:21:04.210Z,22.06
2022-09-28T19:23:30.598Z,20.54
2022-09-28T19:25:56.975Z,21.04
2022-09-28T19:28:23.355Z,20.89
2022-09-28T19:30:49.888Z,20.00
2022-09-28T19:33:16.353Z,20.99
2022-09-28T19:35:42.725Z,19.87
2022-09-28T19:38:09.105Z,20.27
2022-09-28T19:40:35.580Z,19.45
2022-09-28T19:43:01.998Z,19.46
2022-09-28T19:45:28.373Z,19.35
2022-09-28T19:47:59.241Z,19.26
2022-09-28T19:50:25.823Z,19.38
2022-09-28T19:52:52.193Z,19.10
2022-09-28T19:55:18.560Z,19.25
2022-09-28T19:57:44.923Z,18.94
2022-09-28T20:00:11.309Z,19.18
2022-09-28T20:02:37.725Z,18.62
2022-09-28T20:05:04.174Z,18.79
2022-09-28T20:07:30.640Z,18.58
2022-09-28T20:09:57.009Z,18.24
2022-09-28T20:12:23.382Z,18.00
2022-09-28T20:14:49.751Z,17.27
2022-09-28T20:17:16.117Z,17.48
2022-09-28T20:19:42.490Z,17.76
2022-09-28T20:22:08.857Z,17.54
2022-09-28T20:24:35.254Z,17.74
2022-09-28T20:27:01.838Z,17.13
2022-09-28T20:29:28.310Z,17.30
2022-09-28T20:31:54.685Z,17.26
2022-09-28T20:34:21.079Z,17.56
2022-09-28T20:36:47.453Z,17.02
2022-09-28T20:39:13.827Z,16.87
2022-09-28T20:41:40.211Z,16.68
2022-09-28T20:44:06.863Z,16.51
2022-09-28T20:46:33.353Z,16.76
2022-09-28T20:48:59.816Z,16.47
2022-09-28T20:51:26.206Z,16.09
2022-09-28T20:53:52.595Z,16.15
2022-09-28T20:56:18.963Z,15.96
2022-09-28T20:58:45.346Z,15.52
2022-09-28T21:01:11.739Z,15.49
2022-09-28T21:03:38.132Z,15.24
2022-09-28T21:06:07.606Z,15.05
2022-09-28T21:08:36.472Z,15.26
2022-09-28T21:11:03.031Z,14.99
2022-09-28T21:13:29.407Z,14.46
2022-09-28T21:15:55.810Z,13.98
2022-09-28T21:18:22.244Z,14.09
2022-09-28T21:20:48.630Z,13.85
2022-09-28T21:23:15.009Z,13.81
2022-09-28T21:25:41.401Z,13.56
2022-09-28T21:28:07.770Z,13.32
2022-09-28T21:30:34.147Z,13.16
2022-09-28T21:33:00.538Z,13.05
2022-09-28T21:35:26.901Z,12.51
2022-09-28T21:37:53.269Z,12.75
2022-09-28T21:40:19.728Z,12.58
2022-09-28T21:42:46.133Z,12.41
2022-09-28T21:45:12.504Z,12.03
2022-09-28T21:47:38.876Z,11.80
2022-09-28T21:50:05.254Z,12.32
2022-09-28T21:52:31.626Z,12.05
2022-09-28T21:54:58.010Z,12.13
2022-09-28T21:57:24.376Z,11.54
2022-09-28T21:59:50.732Z,11.47
2022-09-28T22:02:17.175Z,11.92
2022-09-28T22:04:43.586Z,11.12
2022-09-28T22:07:09.966Z,11.48
2022-09-28T22:09:36.345Z,11.25
2022-09-28T22:12:02.706Z,11.02
2022-09-28T22:14:29.084Z,10.92
2022-09-28T22:16:55.457Z,10.91
2022-09-28T22:19:21.822Z,10.75
2022-09-28T22:21:48.213Z,11.17
2022-09-28T22:24:14.607Z,10.69
2022-09-28T22:26:41.046Z,10.74
2022-09-28T22:29:07.426Z,11.03
2022-09-28T22:31:33.837Z,10.34
2022-09-28T22:34:00.216Z,10.66
2022-09-28T22:36:26.597Z,10.84
2022-09-28T22:38:52.965Z,10.74
2022-09-28T22:41:19.345Z,10.84
2022-09-28T22:43:45.724Z,10.68
2022-09-28T22:46:12.126Z,10.34
2022-09-28T22:48:38.535Z,10.36
2022-09-28T22:51:04.891Z,10.16
2022-09-28T22:53:31.262Z,10.24
2022-09-28T22:55:57.627Z,10.09
2022-09-28T22:58:23.982Z,10.33
2022-09-28T23:00:50.370Z,9.89
2022-09-28T23:03:16.843Z,9.64
2022-09-28T23:05:43.243Z,9.68
2022-09-28T23:08:09.605Z,10.30
2022-09-28T23:10:35.976Z,9.70
2022-09-28T23:13:02.343Z,9.91
2022-09-28T23:15:28.726Z,9.55
2022-09-28T23:17:55.088Z,9.85
2022-09-28T23:20:21.448Z,9.66
2022-09-28T23:22:47.826Z,9.77
2022-09-28T23:25:14.191Z,9.75
2022-09-28T23:27:40.559Z,9.44
2022-09-28T23:30:06.925Z,9.12
2022-09-28T23:32:33.284Z,9.22
2022-09-28T23:34:59.638Z,9.31
2022-09-28T23:37:26.012Z,9.12
2022-09-28T23:39:52.384Z,9.06
2022-09-28T23:42:18.750Z,9.27
2022-09-28T23:44:45.124Z,8.89
2022-09-28T23:47:11.480Z,9.03
2022-09-28T23:49:37.836Z,8.71
2022-09-28T23:52:04.209Z,8.70
2022-09-28T23:54:30.572Z,8.99
2022-09-28T23:56:56.928Z,8.56
2022-09-28T23:59:23.292Z,8.61
